Valdosta, GA

10:21 PM EST on November 20, 2017 (GMT -0500)
Moody Air Force Base

Weather History for KVAD - September, 2013

Change the Weather History Date:

Sunday, September 22, 2013

  Actual Average Record
Temperature  
Mean Temperature 74 °F -  
Max Temperature 79 °F 82 °F 91 °F (2010)
Min Temperature 71 °F 66 °F 59 °F (1999)
Cooling Degree Days 10    
Growing Degree Days 24 (Base 50)    
Moisture  
Dew Point 73 °F    
Average Humidity 96    
Maximum Humidity 100    
Minimum Humidity 78    
Precipitation  
Precipitation 1.30 in - - ()
Sea Level Pressure  
Sea Level Pressure 29.79 in    
Wind  
Wind Speed 5 mph (WSW)    
Max Wind Speed 15 mph    
Max Gust Speed 24 mph    
Visibility 8 miles    
Events Fog , Rain    
Averages and records for this station are not official NWS values.
T = Trace of Precipitation, MM = Missing Value Source: NWS Daily Summary

Daily Weather History Graph

Daily Weather History Graph

Search for Another Location

Airport or City:

Trip Planner

Search our weather history database for the weather conditions in past years. The results will help you decide how hot, cold, wet, or windy it might be!

Date:

Astronomy

Sep. 22, 2013 Rise Set
Actual Time 7:21 AM EDT 7:29 PM EDT
Civil Twilight 6:57 AM EDT 7:53 PM EDT
Nautical Twilight 6:28 AM EDT 8:21 PM EDT
Astronomical Twilight 6:00 AM EDT 8:49 PM EDT
Moon 9:34 PM EDT (9/22) 10:24 AM EDT (9/22)
Length of Visible Light 12h 56m
Length of Day
12h 07m
Waning Gibbous, 89% of the Moon is Illuminated
Sep 22
Waning Gibbous
Sep 26
Last Quarter
Oct 4
New
Oct 11
First Quarter
Oct 18
Full

Hourly Weather History & Observations

Time (EDT) Temp. Dew Point Humidity Pressure Visibility Wind Dir Wind Speed Gust Speed Precip Events Conditions
12:08 AM 73.4 °F 73.4 °F 100% 29.78 in 10.0 mi South 3.5 mph - N/A Rain Light Rain
12:21 AM 73.4 °F 73.4 °F 100% 29.78 in 10.0 mi SSW 2.3 mph - N/A   Scattered Clouds
12:58 AM 73.9 °F 73.9 °F 100% 29.77 in 10.0 mi South 5.8 mph - 0.00 in   Mostly Cloudy
1:58 AM 73.8 °F 73.4 °F 99% 29.76 in 10.0 mi SSW 4.6 mph - N/A   Scattered Clouds
2:58 AM 73.8 °F 73.4 °F 99% 29.75 in 10.0 mi SSW 4.6 mph - N/A   Partly Cloudy
3:17 AM 73.4 °F 73.4 °F 100% 29.75 in 10.0 mi SSW 4.6 mph - N/A Rain Light Rain
3:52 AM 73.4 °F 73.4 °F 100% 29.74 in 10.0 mi SSW 3.5 mph - N/A Rain Light Rain
3:58 AM 73.6 °F 73.2 °F 99% 29.74 in 10.0 mi SSW 4.6 mph - 0.01 in Rain Light Rain
4:02 AM 73.4 °F 73.4 °F 100% 29.74 in 10.0 mi SW 3.5 mph - N/A Rain Light Rain
4:50 AM 73.4 °F 73.4 °F 100% 29.74 in 10.0 mi SW 4.6 mph - N/A Rain Light Rain
4:58 AM 73.4 °F 73.0 °F 99% 29.74 in 10.0 mi SW 4.6 mph - 0.01 in Rain Light Rain
5:24 AM 73.4 °F 73.4 °F 100% 29.74 in 10.0 mi SW 4.6 mph - N/A Rain Light Rain
5:58 AM 73.4 °F 73.0 °F 99% 29.74 in 10.0 mi SSW 5.8 mph - 0.02 in Rain Light Rain
6:12 AM 73.4 °F 73.4 °F 100% 29.74 in 10.0 mi SSW 4.6 mph - N/A Rain Light Rain
6:46 AM 73.4 °F 73.4 °F 100% 29.74 in 10.0 mi SW 4.6 mph - N/A Rain Light Rain
6:58 AM 73.6 °F 73.2 °F 99% 29.74 in 10.0 mi SSW 6.9 mph - 0.01 in Rain Light Rain
7:00 AM 73.4 °F 73.4 °F 100% 29.74 in 10.0 mi SSW 6.9 mph - N/A Rain Light Rain
7:01 AM 73.4 °F 73.4 °F 100% 29.74 in 10.0 mi SSW 6.9 mph - N/A   Overcast
7:17 AM 73.4 °F 73.4 °F 100% 29.74 in 10.0 mi SSW 5.8 mph - N/A   Overcast
7:37 AM 73.4 °F 73.4 °F 100% 29.75 in 10.0 mi SW 5.8 mph - N/A   Overcast
7:58 AM 73.6 °F 73.4 °F 99% 29.75 in 10.0 mi WSW 3.5 mph - 0.01 in   Mostly Cloudy
8:00 AM 73.4 °F 73.4 °F 100% 29.75 in 10.0 mi WSW 3.5 mph - N/A   Mostly Cloudy
8:08 AM 73.4 °F 73.4 °F 100% 29.76 in 10.0 mi WSW 4.6 mph - N/A   Scattered Clouds
8:54 AM 73.4 °F 73.4 °F 100% 29.77 in 10.0 mi WSW 4.6 mph - N/A   Overcast
8:56 AM 73.4 °F 73.4 °F 100% 29.77 in 10.0 mi SW 4.6 mph - N/A   Overcast
8:58 AM 73.4 °F 73.4 °F 100% 29.77 in 10.0 mi SW 4.6 mph - N/A   Overcast
9:06 AM 73.4 °F 73.4 °F 100% 29.77 in 10.0 mi WSW 4.6 mph - N/A   Overcast
9:54 AM 75.2 °F 73.4 °F 94% 29.78 in 10.0 mi WSW 5.8 mph - N/A   Overcast
9:58 AM 75.4 °F 72.9 °F 92% 29.79 in 10.0 mi WSW 5.8 mph - N/A   Overcast
10:06 AM 75.2 °F 73.4 °F 94% 29.79 in 10.0 mi WSW 5.8 mph - N/A   Overcast
10:08 AM 75.2 °F 73.4 °F 94% 29.79 in 10.0 mi WSW 5.8 mph - N/A   Overcast
10:10 AM 75.2 °F 73.4 °F 94% 29.79 in 10.0 mi WSW 6.9 mph - N/A   Overcast
10:11 AM 75.2 °F 73.4 °F 94% 29.79 in 10.0 mi West 5.8 mph - N/A   Overcast
10:19 AM 75.2 °F 73.4 °F 94% 29.79 in 10.0 mi West 4.6 mph - N/A   Overcast
10:49 AM 75.2 °F 71.6 °F 89% 29.80 in 10.0 mi WSW 4.6 mph - N/A   Overcast
10:58 AM 75.7 °F 72.5 °F 90% 29.81 in 10.0 mi WSW 5.8 mph - N/A   Overcast
11:24 AM 77.0 °F 71.6 °F 83% 29.81 in 10.0 mi WSW 6.9 mph - N/A   Overcast
11:42 AM 77.0 °F 71.6 °F 83% 29.80 in 10.0 mi WSW 5.8 mph - N/A   Overcast
11:50 AM 77.0 °F 71.6 °F 83% 29.80 in 10.0 mi Variable 4.6 mph - N/A   Overcast
11:58 AM 77.9 °F 72.5 °F 83% 29.80 in 10.0 mi West 5.8 mph - N/A   Mostly Cloudy
12:02 PM 78.8 °F 73.4 °F 83% 29.80 in 10.0 mi West 8.1 mph - N/A   Overcast
12:06 PM 78.8 °F 71.6 °F 78% 29.80 in 10.0 mi WNW 8.1 mph - N/A   Overcast
12:08 PM 78.8 °F 71.6 °F 78% 29.80 in 10.0 mi West 9.2 mph - N/A   Overcast
12:09 PM 78.8 °F 71.6 °F 78% 29.80 in 10.0 mi WNW 8.1 mph - N/A Rain Light Rain
12:21 PM 77.0 °F 73.4 °F 89% 29.80 in 10.0 mi West 8.1 mph - N/A   Overcast
12:29 PM 77.0 °F 73.4 °F 89% 29.80 in 10.0 mi West 10.4 mph - N/A   Overcast
12:44 PM 78.8 °F 73.4 °F 83% 29.80 in 4.0 mi WSW 9.2 mph - N/A   Haze
12:50 PM 78.8 °F 73.4 °F 83% 29.80 in 2.5 mi WSW 10.4 mph - N/A Rain Light Rain
12:56 PM 77.0 °F 73.4 °F 89% 29.80 in 2.5 mi West 6.9 mph - N/A   Haze
12:58 PM 77.0 °F 73.4 °F 89% 29.81 in 2.5 mi West 8.1 mph - 0.00 in   Haze
1:00 PM 77.0 °F 73.4 °F 89% 29.80 in 4.0 mi West 6.9 mph - N/A   Haze
1:58 PM 77.9 °F 72.1 °F 82% 29.79 in 10.0 mi WSW 5.8 mph - N/A   Mostly Cloudy
2:06 PM 77.0 °F 71.6 °F 83% 29.80 in 10.0 mi West 8.1 mph - N/A Rain Rain
2:12 PM 75.2 °F 71.6 °F 89% 29.80 in 1.8 mi NW 11.5 mph - N/A Rain Heavy Rain
2:14 PM 75.2 °F 73.4 °F 94% 29.80 in 1.2 mi NW 11.5 mph - N/A Rain Heavy Rain
2:16 PM 75.2 °F 73.4 °F 94% 29.80 in 1.0 mi NW 10.4 mph - N/A Rain Rain
2:18 PM 75.2 °F 73.4 °F 94% 29.80 in 1.0 mi NW 10.4 mph - N/A Rain Rain
2:20 PM 75.2 °F 73.4 °F 94% 29.80 in 1.0 mi NW 10.4 mph - N/A Rain Rain
2:21 PM 75.2 °F 73.4 °F 94% 29.79 in 1.2 mi NW 9.2 mph - N/A Rain Rain
2:25 PM 75.2 °F 73.4 °F 94% 29.79 in 1.5 mi NW 5.8 mph - N/A Rain Light Rain
2:27 PM 75.2 °F 73.4 °F 94% 29.79 in 1.5 mi NW 3.5 mph - N/A Rain Light Rain
2:29 PM 75.2 °F 73.4 °F 94% 29.79 in 1.2 mi WNW 3.5 mph - N/A Rain Light Rain
2:37 PM 75.2 °F 73.4 °F 94% 29.79 in 1.5 mi West 3.5 mph - N/A Rain Light Rain
2:39 PM 75.2 °F 73.4 °F 94% 29.79 in 1.8 mi WNW 4.6 mph - N/A   Overcast
2:41 PM 75.2 °F 73.4 °F 94% 29.79 in 2.0 mi West 2.3 mph - N/A Rain Light Rain
2:45 PM 75.2 °F 73.4 °F 94% 29.79 in 3.0 mi Variable 2.3 mph - N/A Rain Light Rain
2:47 PM 75.2 °F 73.4 °F 94% 29.79 in 4.0 mi West 2.3 mph - N/A Rain Light Rain
2:58 PM 75.2 °F 73.9 °F 96% 29.79 in 9.0 mi Variable 2.3 mph - 0.17 in Rain Light Rain
3:00 PM 75.2 °F 73.4 °F 94% 29.79 in 10.0 mi SW 2.3 mph - N/A Rain Light Rain
3:01 PM 75.2 °F 75.2 °F 100% 29.79 in 10.0 mi SW 3.5 mph - N/A   Overcast
3:03 PM 75.2 °F 73.4 °F 94% 29.79 in 10.0 mi West 3.5 mph - N/A   Overcast
3:45 PM 77.0 °F 73.4 °F 89% 29.78 in 10.0 mi WSW 3.5 mph - N/A   Mostly Cloudy
3:47 PM 77.0 °F 73.4 °F 89% 29.78 in 10.0 mi WSW 2.3 mph - N/A   Mostly Cloudy
3:49 PM 77.0 °F 73.4 °F 89% 29.78 in 10.0 mi West 4.6 mph - N/A Rain Light Rain
3:51 PM 77.0 °F 73.4 °F 89% 29.78 in 10.0 mi Variable 3.5 mph - N/A Rain Light Rain
3:58 PM 77.0 °F 73.4 °F 89% 29.78 in 10.0 mi WSW 4.6 mph - 0.00 in Rain Light Rain
4:05 PM 77.0 °F 73.4 °F 89% 29.78 in 10.0 mi WNW 4.6 mph - N/A   Mostly Cloudy
4:28 PM 77.0 °F 73.4 °F 89% 29.78 in 10.0 mi WSW 4.6 mph - N/A Rain Light Rain
4:46 PM 75.2 °F 73.4 °F 94% 29.78 in 4.0 mi SSW 4.6 mph - N/A Rain Light Rain
4:52 PM 75.2 °F 73.4 °F 94% 29.78 in 5.0 mi SSW 3.5 mph - N/A Rain Light Rain
4:56 PM 75.2 °F 73.4 °F 94% 29.78 in 7.0 mi SSW 3.5 mph - N/A Rain Light Rain
4:58 PM 75.7 °F 73.9 °F 94% 29.78 in 7.0 mi SSW 3.5 mph - 0.05 in Rain Light Rain
5:00 PM 75.2 °F 73.4 °F 94% 29.78 in 10.0 mi SSW 3.5 mph - N/A   Overcast
5:02 PM 75.2 °F 73.4 °F 94% 29.78 in 10.0 mi SSW 4.6 mph - N/A   Overcast
5:06 PM 77.0 °F 75.2 °F 94% 29.78 in 10.0 mi South 4.6 mph - N/A   Overcast
5:14 PM 75.2 °F 73.4 °F 94% 29.78 in 10.0 mi South 4.6 mph - N/A   Overcast
5:25 PM 75.2 °F 75.2 °F 100% 29.78 in 9.0 mi South 5.8 mph - N/A   Overcast
5:34 PM 75.2 °F 75.2 °F 100% 29.79 in 5.0 mi WSW 3.5 mph - N/A Rain Light Rain
5:40 PM 75.2 °F 75.2 °F 100% 29.80 in 2.5 mi West 5.8 mph - N/A Rain Light Rain
5:42 PM 75.2 °F 75.2 °F 100% 29.80 in 1.8 mi West 5.8 mph - N/A Rain Heavy Rain
5:44 PM 75.2 °F 75.2 °F 100% 29.80 in 1.2 mi WNW 5.8 mph - N/A Rain Heavy Rain
5:46 PM 75.2 °F 73.4 °F 94% 29.80 in 1.0 mi NW 5.8 mph - N/A Rain Heavy Rain
5:48 PM 75.2 °F 73.4 °F 94% 29.79 in 0.8 mi NW 4.6 mph - N/A Rain Heavy Rain
5:50 PM 75.2 °F 73.4 °F 94% 29.79 in 0.8 mi NW 5.8 mph - N/A Rain Heavy Rain
5:52 PM 73.4 °F 73.4 °F 100% 29.79 in 0.5 mi NNW 3.5 mph - N/A Fog , Rain Heavy Rain
5:56 PM 73.4 °F 73.4 °F 100% 29.79 in 0.8 mi NNW 3.5 mph - N/A Rain Heavy Rain
5:58 PM 73.9 °F 73.4 °F 98% 29.79 in 0.8 mi NNW 3.5 mph - 0.55 in Rain Heavy Rain
6:00 PM 73.4 °F 73.4 °F 100% 29.79 in 1.0 mi North 3.5 mph - N/A Rain Heavy Rain
6:02 PM 73.4 °F 73.4 °F 100% 29.79 in 1.2 mi NNW 3.5 mph - N/A Rain Rain
6:04 PM 73.4 °F 73.4 °F 100% 29.79 in 1.5 mi NNW 4.6 mph - N/A Rain Rain
6:06 PM 73.4 °F 73.4 °F 100% 29.79 in 2.0 mi North 5.8 mph - N/A Rain Rain
6:10 PM 73.4 °F 73.4 °F 100% 29.79 in 3.0 mi North 4.6 mph - N/A Rain Light Rain
6:38 PM 73.4 °F 73.4 °F 100% 29.79 in 10.0 mi East 2.3 mph - N/A   Overcast
6:58 PM 73.9 °F 73.6 °F 99% 29.81 in 10.0 mi SSE 2.3 mph - 0.11 in   Overcast
7:12 PM 73.4 °F 73.4 °F 100% 29.81 in 10.0 mi South 5.8 mph - N/A   Overcast
7:13 PM 73.4 °F 73.4 °F 100% 29.81 in 10.0 mi South 5.8 mph - N/A   Overcast
7:20 PM 73.4 °F 73.4 °F 100% 29.81 in 10.0 mi SSE 4.6 mph - N/A Rain Light Rain
7:28 PM 73.4 °F 73.4 °F 100% 29.81 in 10.0 mi South 9.2 mph - N/A Rain Rain
7:36 PM 73.4 °F 73.4 °F 100% 29.81 in 10.0 mi SSW 15.0 mph 24.2 mph N/A Rain Light Rain
7:38 PM 73.4 °F 73.4 °F 100% 29.81 in 9.0 mi SW 15.0 mph 24.2 mph N/A Rain Light Rain
7:40 PM 73.4 °F 73.4 °F 100% 29.81 in 7.0 mi SW 10.4 mph 24.2 mph N/A Rain Light Rain
7:42 PM 73.4 °F 73.4 °F 100% 29.81 in 5.0 mi SW 9.2 mph 24.2 mph N/A Rain Heavy Rain
7:44 PM 73.4 °F 71.6 °F 94% 29.81 in 4.0 mi WSW 8.1 mph 24.2 mph N/A Rain Heavy Rain
7:46 PM 71.6 °F 71.6 °F 100% 29.81 in 3.0 mi SW 6.9 mph 21.9 mph N/A Rain Heavy Rain
7:48 PM 71.6 °F 71.6 °F 100% 29.81 in 3.0 mi SW 6.9 mph - N/A Rain Heavy Rain
7:56 PM 71.6 °F 71.6 °F 100% 29.81 in 4.0 mi SW 10.4 mph - N/A Rain Light Rain
7:58 PM 71.6 °F 71.6 °F 100% 29.81 in 4.0 mi SW 10.4 mph - 0.32 in Rain Light Rain
8:06 PM 71.6 °F 71.6 °F 100% 29.82 in 5.0 mi SW 10.4 mph - N/A Rain Light Rain
8:08 PM 71.6 °F 71.6 °F 100% 29.82 in 6.0 mi SW 10.4 mph - N/A Rain Light Rain
8:12 PM 71.6 °F 71.6 °F 100% 29.82 in 9.0 mi SW 8.1 mph - N/A Rain Light Rain
8:14 PM 71.6 °F 71.6 °F 100% 29.82 in 10.0 mi SW 6.9 mph - N/A Rain Light Rain
8:18 PM 71.6 °F 71.6 °F 100% 29.82 in 10.0 mi SW 5.8 mph - N/A Rain Light Rain
8:37 PM 71.6 °F 71.6 °F 100% 29.82 in 10.0 mi SW 5.8 mph - N/A   Overcast
8:58 PM 71.8 °F 71.4 °F 99% 29.83 in 10.0 mi WSW 3.5 mph - 0.03 in   Overcast
9:02 PM 71.6 °F 71.6 °F 100% 29.83 in 10.0 mi West 4.6 mph - N/A   Overcast
9:06 PM 71.6 °F 71.6 °F 100% 29.83 in 10.0 mi West 4.6 mph - N/A   Overcast
9:28 PM 71.6 °F 71.6 °F 100% 29.84 in 10.0 mi West 4.6 mph - N/A Rain Light Rain
9:42 PM 71.6 °F 71.6 °F 100% 29.84 in 10.0 mi West 8.1 mph - N/A   Overcast
9:48 PM 71.6 °F 71.6 °F 100% 29.84 in 10.0 mi WNW 8.1 mph - N/A   Overcast
9:58 PM 72.1 °F 71.8 °F 99% 29.84 in 10.0 mi WNW 8.1 mph - 0.01 in   Overcast
10:02 PM 71.6 °F 71.6 °F 100% 29.85 in 10.0 mi WNW 6.9 mph - N/A   Overcast
10:21 PM 71.6 °F 71.6 °F 100% 29.85 in 10.0 mi NW 9.2 mph - N/A Rain Light Rain
10:23 PM 71.6 °F 71.6 °F 100% 29.85 in 10.0 mi NW 9.2 mph - N/A Rain Light Rain
10:36 PM 71.6 °F 71.6 °F 100% 29.85 in 10.0 mi NNW 4.6 mph - N/A   Overcast
10:58 PM 72.3 °F 72.1 °F 99% 29.86 in 10.0 mi West 2.3 mph - 0.00 in   Overcast
11:01 PM 71.6 °F 71.6 °F 100% 29.85 in 10.0 mi West 3.5 mph - N/A   Overcast
11:10 PM 71.6 °F 71.6 °F 100% 29.85 in 10.0 mi WSW 3.5 mph - N/A Rain Light Rain
11:19 PM 71.6 °F 71.6 °F 100% 29.85 in 10.0 mi SW 3.5 mph - N/A   Overcast
11:50 PM 71.6 °F 71.6 °F 100% 29.85 in 10.0 mi Calm Calm - N/A Rain Light Rain
11:58 PM 72.5 °F 72.1 °F 99% 29.85 in 10.0 mi East 1.2 mph - 0.00 in Rain Light Rain
11:59 PM 73.4 °F 71.6 °F 94% 29.85 in 10.0 mi Calm Calm - N/A   Overcast